Time;durP1;ratioP1;P1;durP2;ratioP2;P2;SDS_P1;SDS_P2;PMS_P1;PMS_P2;Temp;Humidity;BMP_temperature;BMP_pressure;BME280_temperature;BME280_humidity;BME280_pressure;Samples;Min_cycle;Max_cycle;Signal;HPM_P1;HPM_P2
2023/02/24 00:01:36;;;;;;;;;;;;;;;;;;6246600;23;20325;-94
2023/02/24 00:04:02;;;;;;;;;;;;;;;;;;6246579;23;19923;-93
2023/02/24 00:06:35;;;;;;;;;;;;;;;;;;6246459;23;19915;-95
2023/02/24 00:09:09;;;;;;;;;;;;;;;;;;6221072;23;19939;-94
2023/02/24 00:11:40;;;;;;;;;;;;;;;;;;6246180;23;19994;-93
2023/02/24 00:14:06;;;;;;;;;;;;;;;;;;6220839;23;20325;-94
2023/02/24 00:16:35;;;;;;;;;;;;;;;;;;6246293;23;19916;-95
2023/02/24 00:19:10;;;;;;;;;;;;;;;;;;6246045;23;20388;-95
2023/02/24 00:21:35;;;;;;;;;;;;;;;;;;6222287;23;20010;-94
2023/02/24 00:24:15;;;;;;;;;;;;;;;;;;;;;
2023/02/24 00:26:44;;;;;;;;;;;;;;;;;;6248324;23;19916;-95
2023/02/24 00:29:12;;;;;;;;;;;;;;;;;;6248018;23;19919;-94
2023/02/24 00:31:41;;;;;;;;;;;;;;;;;;6222551;23;19915;-93
2023/02/24 00:34:07;;;;;;;;;;;;;;;;;;6248252;23;20003;-90
2023/02/24 00:36:36;;;;;;;;;;;;;;;;;;6248232;23;19919;-93
2023/02/24 00:39:11;;;;;;;;;;;;;;;;;;6222542;23;19938;-96
2023/02/24 00:41:37;;;;;;;;;;;;;;;;;;6223469;23;19915;-94
2023/02/24 00:44:05;;;;;;;;;;;;;;;;;;6248013;23;19915;-94
2023/02/24 00:46:31;;;;;;;;;;;;;;;;;;6247824;23;19916;-93
2023/02/24 00:48:57;;;;;;;;;;;;;;;;;;6249470;23;19957;-92
2023/02/24 00:51:22;;;;;;;;;;;;;;;;;;6222277;23;20017;-92
2023/02/24 00:53:49;;;;;;;;;;;;;;;;;;6222989;23;19919;-94
2023/02/24 00:56:17;;;;;;;;;;;;;;;;;;6247011;23;19915;-94
2023/02/24 00:58:46;;;;;;;;;;;;;;;;;;6222994;23;19924;-94
2023/02/24 01:01:15;;;;;;;;;;;;;;;;;;6247782;23;19916;-93
2023/02/24 01:03:41;;;;;;;;;;;;;;;;;;6222461;23;19923;-94
2023/02/24 01:06:09;;;;;;;;;;;;;;;;;;6247802;23;19916;-92
2023/02/24 01:08:38;;;;;;;;;;;;;;;;;;6248947;22;19919;-94
2023/02/24 01:13:48;;;;;;;;;;;;;;;;;;6247343;23;19920;-90
2023/02/24 01:16:17;;;;;;;;;;;;;;;;;;6222134;23;19916;-93
2023/02/24 01:18:43;;;;;;;;;;;;;;;;;;6249601;22;19915;-94
2023/02/24 01:21:11;;;;;;;;;;;;;;;;;;6249058;23;19997;-94
2023/02/24 01:23:37;;;;;;;;;;;;;;;;;;6222351;23;19990;-93
2023/02/24 01:26:08;;;;;;;;;;;;;;;;;;6247888;23;19916;-94
2023/02/24 01:28:34;;;;;;;;;;;;;;;;;;6247852;23;19942;-93
2023/02/24 01:31:01;;;;;;;;;;;;;;;;;;6248791;23;19937;-93
2023/02/24 02:01:12;;;;;;;;;;;;;;;;;;;;;
2023/02/24 03:02:17;;;;;;;;;;;;;;;;;;6255256;23;19919;-92
2023/02/24 03:04:43;;;;;;;;;;;;;;;;;;6253619;23;19998;-93
2023/02/24 03:07:09;;;;;;;;;;;;;;;;;;6202429;23;19915;-93
2023/02/24 03:09:35;;;;;;;;;;;;;;;;;;6253717;22;19940;-93
2023/02/24 03:12:01;;;;;;;;;;;;;;;;;;6227112;23;19924;-92
2023/02/24 03:14:27;;;;;;;;;;;;;;;;;;6204442;23;20313;-93
2023/02/24 03:16:53;;;;;;;;;;;;;;;;;;6231647;23;19992;-93
2023/02/24 03:19:19;;;;;;;;;;;;;;;;;;6232118;23;19916;-94
2023/02/24 03:22:07;;;;;;;;;;;;;;;;;;6230206;23;19963;-94
2023/02/24 03:24:31;;;;;;;;;;;;;;;;;;6225102;23;19915;-92
2023/02/24 03:26:57;;;;;;;;;;;;;;;;;;6196306;23;19923;-92
2023/02/24 03:29:23;;;;;;;;;;;;;;;;;;6220217;23;19947;-93
2023/02/24 03:31:49;;;;;;;;;;;;;;;;;;6247821;23;19916;-94
2023/02/24 03:34:28;;;;;;;;;;;;;;;;;;6227299;23;19915;-96
2023/02/24 03:36:54;;;;;;;;;;;;;;;;;;6223429;23;19916;-92
2023/02/24 03:39:19;;;;;;;;;;;;;;;;;;6196496;23;19916;-93
2023/02/24 03:41:45;;;;;;;;;;;;;;;;;;6221077;23;19923;-93
2023/02/24 03:44:13;;;;;;;;;;;;;;;;;;6195525;23;19920;-94
2023/02/24 03:46:41;;;;;;;;;;;;;;;;;;6220879;23;20341;-93
2023/02/24 03:49:18;;;;;;;;;;;;;;;;;;6221243;23;19915;-94
2023/02/24 03:51:47;;;;;;;;;;;;;;;;;;6195510;23;19922;-94
2023/02/24 03:54:31;;;;;;;;;;;;;;;;;;6195891;23;19920;-95
2023/02/24 03:57:00;;;;;;;;;;;;;;;;;;6196209;23;19915;-92
2023/02/24 03:59:28;;;;;;;;;;;;;;;;;;6196274;23;20281;-95
2023/02/24 04:01:56;;;;;;;;;;;;;;;;;;6220606;23;19919;-94
2023/02/24 04:04:22;;;;;;;;;;;;;;;;;;6196096;23;19955;-93
2023/02/24 04:06:48;;;;;;;;;;;;;;;;;;6220714;23;19926;-93
2023/02/24 04:09:14;;;;;;;;;;;;;;;;;;6220546;23;19916;-92
2023/02/24 04:11:40;;;;;;;;;;;;;;;;;;6220851;23;19915;-93
2023/02/24 04:14:06;;;;;;;;;;;;;;;;;;6195374;23;19920;-92
2023/02/24 04:16:35;;;;;;;;;;;;;;;;;;6220505;23;19919;-93
2023/02/24 04:19:02;;;;;;;;;;;;;;;;;;6194899;23;19919;-91
2023/02/24 04:21:31;;;;;;;;;;;;;;;;;;6195192;23;19919;-95
2023/02/24 04:23:57;;;;;;;;;;;;;;;;;;6219840;23;20325;-93
2023/02/24 04:26:23;;;;;;;;;;;;;;;;;;6195892;23;19966;-92
2023/02/24 04:28:49;;;;;;;;;;;;;;;;;;6247444;22;19954;-93
2023/02/24 04:31:17;;;;;;;;;;;;;;;;;;6247300;23;19916;-93
2023/02/24 04:33:43;;;;;;;;;;;;;;;;;;6220090;23;19919;-92
2023/02/24 04:36:11;;;;;;;;;;;;;;;;;;6195730;23;20295;-92
2023/02/24 04:38:37;;;;;;;;;;;;;;;;;;6220222;23;20336;-92
2023/02/24 04:41:03;;;;;;;;;;;;;;;;;;6221106;23;19953;-92
2023/02/24 04:43:29;;;;;;;;;;;;;;;;;;6220831;23;19955;-93
2023/02/24 04:45:55;;;;;;;;;;;;;;;;;;6220846;23;20286;-93
2023/02/24 04:48:21;;;;;;;;;;;;;;;;;;6246823;22;20131;-94
2023/02/24 04:50:53;;;;;;;;;;;;;;;;;;6247644;23;19916;-92
2023/02/24 04:53:25;;;;;;;;;;;;;;;;;;6246878;23;20102;-93
2023/02/24 04:55:51;;;;;;;;;;;;;;;;;;6220815;23;19938;-92
2023/02/24 04:58:18;;;;;;;;;;;;;;;;;;6247401;22;19969;-93
2023/02/24 05:00:51;;;;;;;;;;;;;;;;;;6220114;23;19927;-90
2023/02/24 05:03:18;;;;;;;;;;;;;;;;;;6220260;23;19919;-92
2023/02/24 05:05:44;;;;;;;;;;;;;;;;;;6220352;23;19916;-92
2023/02/24 05:08:10;;;;;;;;;;;;;;;;;;6248892;22;19923;-93
2023/02/24 05:10:37;;;;;;;;;;;;;;;;;;6221602;23;19954;-91
2023/02/24 05:13:05;;;;;;;;;;;;;;;;;;6196601;23;19919;-92
2023/02/24 05:15:31;;;;;;;;;;;;;;;;;;6221907;23;19986;-93
2023/02/24 05:17:57;;;;;;;;;;;;;;;;;;6222061;22;19980;-92
2023/02/24 05:23:10;;;;;;;;;;;;;;;;;;6222328;23;19916;-94
2023/02/24 05:25:36;;;;;;;;;;;;;;;;;;6222673;23;19930;-94
2023/02/24 05:28:02;;;;;;;;;;;;;;;;;;6221842;22;19959;-95
2023/02/24 05:30:37;;;;;;;;;;;;;;;;;;6222385;23;19990;-93
2023/02/24 05:33:06;;;;;;;;;;;;;;;;;;6196950;23;19998;-92
2023/02/24 05:35:40;;;;;;;;;;;;;;;;;;6222076;23;19927;-94
2023/02/24 05:41:03;;;;;;;;;;;;;;;;;;6186197;23;19920;-95
2023/02/24 05:43:34;;;;;;;;;;;;;;;;;;6222361;23;19920;-93
2023/02/24 05:46:08;;;;;;;;;;;;;;;;;;6196987;23;19916;-94
2023/02/24 05:48:39;;;;;;;;;;;;;;;;;;6221883;23;19915;-94
2023/02/24 05:51:07;;;;;;;;;;;;;;;;;;6248792;23;19965;-95
2023/02/24 05:53:40;;;;;;;;;;;;;;;;;;6196726;23;19923;-94
2023/02/24 05:56:22;;;;;;;;;;;;;;;;;;;;;
2023/02/24 05:59:00;;;;;;;;;;;;;;;;;;6221530;23;19966;-95
2023/02/24 06:01:29;;;;;;;;;;;;;;;;;;6196623;23;19919;-94
2023/02/24 06:03:54;;;;;;;;;;;;;;;;;;6221414;23;19947;-92
2023/02/24 06:06:22;;;;;;;;;;;;;;;;;;6222062;23;19923;-93
2023/02/24 06:08:51;;;;;;;;;;;;;;;;;;6196760;23;20226;-92
2023/02/24 06:11:17;;;;;;;;;;;;;;;;;;6196812;23;19942;-93
2023/02/24 06:13:46;;;;;;;;;;;;;;;;;;6196143;23;19923;-93
2023/02/24 06:16:13;;;;;;;;;;;;;;;;;;6248691;23;19919;-94
2023/02/24 06:18:39;;;;;;;;;;;;;;;;;;6220868;23;19951;-93
2023/02/24 06:21:11;;;;;;;;;;;;;;;;;;6221676;23;20005;-93
2023/02/24 06:23:37;;;;;;;;;;;;;;;;;;6222017;23;20351;-92
2023/02/24 06:26:03;;;;;;;;;;;;;;;;;;6197231;23;20257;-92
2023/02/24 06:28:29;;;;;;;;;;;;;;;;;;6195994;23;19922;-92
2023/02/24 06:30:55;;;;;;;;;;;;;;;;;;6220991;23;19915;-94
2023/02/24 06:33:21;;;;;;;;;;;;;;;;;;6196056;23;20333;-93
2023/02/24 06:35:47;;;;;;;;;;;;;;;;;;6196725;23;19916;-94
2023/02/24 06:38:13;;;;;;;;;;;;;;;;;;6221456;23;19915;-92
2023/02/24 06:40:51;;;;;;;;;;;;;;;;;;6225021;23;20342;-95
2023/02/24 06:43:18;;;;;;;;;;;;;;;;;;6246459;23;19915;-93
2023/02/24 06:45:44;;;;;;;;;;;;;;;;;;6196287;23;20003;-92
2023/02/24 06:48:10;;;;;;;;;;;;;;;;;;6196113;22;20245;-92
2023/02/24 06:50:36;;;;;;;;;;;;;;;;;;6196009;23;20330;-95
2023/02/24 06:53:02;;;;;;;;;;;;;;;;;;6223743;23;19947;-93
2023/02/24 06:55:28;;;;;;;;;;;;;;;;;;6249297;23;19954;-94
2023/02/24 06:57:57;;;;;;;;;;;;;;;;;;6197011;22;20129;-94
2023/02/24 07:00:28;;;;;;;;;;;;;;;;;;6196340;23;19920;-94
2023/02/24 07:02:55;;;;;;;;;;;;;;;;;;6221230;23;19923;-94
2023/02/24 07:05:23;;;;;;;;;;;;;;;;;;6221555;23;20348;-93
2023/02/24 07:07:50;;;;;;;;;;;;;;;;;;6195772;22;19904;-93
2023/02/24 07:10:16;;;;;;;;;;;;;;;;;;6222073;23;20305;-93
2023/02/24 07:12:42;;;;;;;;;;;;;;;;;;6196736;23;19928;-94
2023/02/24 07:15:08;;;;;;;;;;;;;;;;;;6221050;23;20046;-96
2023/02/24 07:17:35;;;;;;;;;;;;;;;;;;6222387;23;19916;-96
2023/02/24 07:20:10;;;;;;;;;;;;;;;;;;6198442;23;19959;-92
2023/02/24 07:22:36;;;;;;;;;;;;;;;;;;6221860;23;19920;-93
2023/02/24 07:25:02;;;;;;;;;;;;;;;;;;6221252;23;19919;-94
2023/02/24 07:27:28;;;;;;;;;;;;;;;;;;6248201;23;19942;-91
2023/02/24 07:29:54;;;;;;;;;;;;;;;;;;6195166;23;20312;-94
2023/02/24 07:32:39;;;;;;;;;;;;;;;;;;6220689;23;19920;-94
2023/02/24 07:35:05;;;;;;;;;;;;;;;;;;6221120;23;20252;-94
2023/02/24 07:37:33;;;;;;;;;;;;;;;;;;6221356;23;19951;-95
2023/02/24 07:40:03;;;;;;;;;;;;;;;;;;6249439;22;19965;-96
2023/02/24 07:42:34;;;;;;;;;;;;;;;;;;6196934;23;19966;-93
2023/02/24 07:45:00;;;;;;;;;;;;;;;;;;6195812;23;19915;-95
2023/02/24 07:47:26;;;;;;;;;;;;;;;;;;6247457;23;20233;-92
2023/02/24 07:49:54;;;;;;;;;;;;;;;;;;6220430;23;20375;-94
2023/02/24 07:52:21;;;;;;;;;;;;;;;;;;6195838;23;19919;-95
2023/02/24 07:54:48;;;;;;;;;;;;;;;;;;6247976;23;20245;-94
2023/02/24 07:57:14;;;;;;;;;;;;;;;;;;6195594;23;19923;-94
2023/02/24 07:59:45;;;;;;;;;;;;;;;;;;6195522;23;19956;-94
2023/02/24 08:02:14;;;;;;;;;;;;;;;;;;6220592;23;19920;-96
2023/02/24 08:04:43;;;;;;;;;;;;;;;;;;6195473;23;19915;-94
2023/02/24 08:07:13;;;;;;;;;;;;;;;;;;6195811;23;20295;-91
2023/02/24 08:12:14;;;;;;;;;;;;;;;;;;6220191;23;20427;-92
2023/02/24 08:42:17;;;;;;;;;;;;;;;;;;;;;
2023/02/24 08:44:49;;;;;;;;;;;;;;;;;;6160307;23;19923;-93
2023/02/24 08:47:19;;;;;;;;;;;;;;;;;;6109448;23;20224;-92
2023/02/24 08:49:56;;;;;;;;;;;;;;;;;;6109170;23;19964;-95
2023/02/24 08:52:26;;;;;;;;;;;;;;;;;;6131097;23;19916;-91
2023/02/24 08:54:57;;;;;;;;;;;;;;;;;;6107278;23;19956;-92
2023/02/24 08:57:24;;;;;;;;;;;;;;;;;;6174524;23;19920;-91
2023/02/24 08:59:56;;;;;;;;;;;;;;;;;;6196835;23;19922;-93
2023/02/24 09:04:48;;;;;;;;;;;;;;;;;;6222164;23;19916;-91
2023/02/24 09:07:14;;;;;;;;;;;;;;;;;;6222423;23;20182;-93
2023/02/24 09:09:41;;;;;;;;;;;;;;;;;;6197192;23;20289;-90
2023/02/24 09:12:11;;;;;;;;;;;;;;;;;;6197048;23;19938;-94
2023/02/24 09:14:37;;;;;;;;;;;;;;;;;;6196905;23;19920;-92
2023/02/24 09:17:04;;;;;;;;;;;;;;;;;;6221243;23;19916;-93
2023/02/24 09:19:39;;;;;;;;;;;;;;;;;;6196742;23;19962;-92
2023/02/24 09:22:13;;;;;;;;;;;;;;;;;;6248745;23;19916;-92
2023/02/24 09:24:40;;;;;;;;;;;;;;;;;;6197131;23;19962;-93
2023/02/24 09:27:06;;;;;;;;;;;;;;;;;;6243747;23;19948;-94
2023/02/24 09:29:32;;;;;;;;;;;;;;;;;;6191742;23;20294;-93
2023/02/24 09:32:03;;;;;;;;;;;;;;;;;;6166706;23;19930;-92
2023/02/24 09:34:29;;;;;;;;;;;;;;;;;;6167448;23;19978;-93
2023/02/24 09:37:01;;;;;;;;;;;;;;;;;;6191556;23;20301;-94
2023/02/24 09:39:27;;;;;;;;;;;;;;;;;;6166987;23;19916;-93
2023/02/24 09:42:02;;;;;;;;;;;;;;;;;;6191796;23;20214;-93
2023/02/24 09:44:31;;;;;;;;;;;;;;;;;;6167273;23;19916;-93
2023/02/24 09:46:57;;;;;;;;;;;;;;;;;;6192228;23;19916;-94
2023/02/24 09:49:23;;;;;;;;;;;;;;;;;;6167573;23;19920;-93
2023/02/24 10:00:42;;;;;;;;;;;;;;;;;;6250046;22;19915;-95
2023/02/24 10:03:18;;;;;;;;;;;;;;;;;;6288440;22;19915;-94
2023/02/24 10:12:03;;;;;;;;;;;;;;;;;;6206288;23;19932;-95
2023/02/24 10:28:16;;;;;;;;;;;;;;;;;;6140614;23;20331;-95
2023/02/24 10:31:02;;;;;;;;;;;;;;;;;;6131452;23;19916;-95
2023/02/24 10:33:31;;;;;;;;;;;;;;;;;;6228737;22;19926;-93
2023/02/24 10:38:54;;;;;;;;;;;;;;;;;;6205744;22;19921;-94
2023/02/24 10:41:36;;;;;;;;;;;;;;;;;;6254246;22;19915;-96
2023/02/24 10:44:15;;;;;;;;;;;;;;;;;;6238228;22;19926;-95
2023/02/24 10:46:41;;;;;;;;;;;;;;;;;;6252013;22;19990;-92
2023/02/24 10:49:15;;;;;;;;;;;;;;;;;;6226413;22;19922;-92
2023/02/24 10:51:44;;;;;;;;;;;;;;;;;;6282073;22;19941;-95
2023/02/24 10:54:32;;;;;;;;;;;;;;;;;;6234319;22;19934;-90
2023/02/24 10:57:16;;;;;;;;;;;;;;;;;;6224216;22;19922;-91
2023/02/24 10:59:57;;;;;;;;;;;;;;;;;;6225820;22;19919;-93
2023/02/24 11:02:39;;;;;;;;;;;;;;;;;;6251815;22;19919;-96
2023/02/24 11:08:34;;;;;;;;;;;;;;;;;;;;;
2023/02/24 11:19:40;;;;;;;;;;;;;;;;;;6186920;23;19963;-94
2023/02/24 11:22:14;;;;;;;;;;;;;;;;;;6169818;23;19920;-93
2023/02/24 11:27:16;;;;;;;;;;;;;;;;;;6261457;22;19926;-92
2023/02/24 11:29:42;;;;;;;;;;;;;;;;;;6232408;23;19959;-95
2023/02/24 11:32:08;;;;;;;;;;;;;;;;;;6195226;23;19916;-93
2023/02/24 11:34:34;;;;;;;;;;;;;;;;;;6194639;23;19969;-93
2023/02/24 11:37:03;;;;;;;;;;;;;;;;;;6220955;23;19916;-93
2023/02/24 11:39:36;;;;;;;;;;;;;;;;;;6223879;23;20262;-94
2023/02/24 11:42:30;;;;;;;;;;;;;;;;;;6259698;22;19920;-93
2023/02/24 12:03:35;;;;;;;;;;;;;;;;;;6252280;22;19919;-92
2023/02/24 12:06:04;;;;;;;;;;;;;;;;;;6261011;22;19922;-92
2023/02/24 12:08:30;;;;;;;;;;;;;;;;;;6258695;22;19915;-92
2023/02/24 12:10:59;;;;;;;;;;;;;;;;;;6261443;22;19915;-92
2023/02/24 12:13:27;;;;;;;;;;;;;;;;;;6287451;22;19919;-93
2023/02/24 12:15:53;;;;;;;;;;;;;;;;;;6263589;22;19915;-92
2023/02/24 12:18:19;;;;;;;;;;;;;;;;;;6263543;22;20028;-92
2023/02/24 12:20:51;;;;;;;;;;;;;;;;;;6288062;22;19942;-93
2023/02/24 12:23:21;;;;;;;;;;;;;;;;;;6260167;22;19973;-93
2023/02/24 12:25:52;;;;;;;;;;;;;;;;;;6285125;22;19915;-92
2023/02/24 12:28:20;;;;;;;;;;;;;;;;;;6258713;22;19919;-93
2023/02/24 12:30:49;;;;;;;;;;;;;;;;;;6284425;22;19915;-94
2023/02/24 12:33:15;;;;;;;;;;;;;;;;;;6259386;22;19919;-96
2023/02/24 12:35:46;;;;;;;;;;;;;;;;;;6259615;22;20007;-94
2023/02/24 12:38:13;;;;;;;;;;;;;;;;;;6258723;22;19915;-95
2023/02/24 12:40:44;;;;;;;;;;;;;;;;;;6283542;22;19915;-94
2023/02/24 13:12:24;;;;;;;;;;;;;;;;;;;;;
2023/02/24 13:34:58;;;;;;;;;;;;;;;;;;6293218;22;19919;-94
2023/02/24 13:40:21;;;;;;;;;;;;;;;;;;6252028;23;19922;-93
2023/02/24 14:01:26;;;;;;;;;;;;;;;;;;6261287;22;19919;-92
2023/02/24 14:03:52;;;;;;;;;;;;;;;;;;6257688;22;20355;-93
2023/02/24 14:06:18;;;;;;;;;;;;;;;;;;6283236;22;20405;-94
2023/02/24 14:08:44;;;;;;;;;;;;;;;;;;6282908;22;19964;-91
2023/02/24 14:11:23;;;;;;;;;;;;;;;;;;;;;
2023/02/24 14:14:08;;;;;;;;;;;;;;;;;;6201098;22;19923;-92
2023/02/24 14:16:38;;;;;;;;;;;;;;;;;;6310165;22;19939;-94
2023/02/24 14:19:04;;;;;;;;;;;;;;;;;;6231691;22;19934;-94
2023/02/24 14:21:30;;;;;;;;;;;;;;;;;;6283667;22;19923;-95
2023/02/24 14:43:22;;;;;;;;;;;;;;;;;;6294637;22;19915;-95
2023/02/24 14:45:48;;;;;;;;;;;;;;;;;;6258647;22;20353;-94
2023/02/24 14:48:14;;;;;;;;;;;;;;;;;;6283017;22;19915;-94
2023/02/24 14:50:40;;;;;;;;;;;;;;;;;;6284812;22;19942;-96
2023/02/24 14:56:17;;;;;;;;;;;;;;;;;;6253444;22;19918;-91
2023/02/24 14:58:51;;;;;;;;;;;;;;;;;;6291496;22;19915;-94
2023/02/24 15:01:17;;;;;;;;;;;;;;;;;;6259699;22;19919;-95
2023/02/24 15:03:42;;;;;;;;;;;;;;;;;;6262366;22;19925;-94
2023/02/24 15:14:04;;;;;;;;;;;;;;;;;;6307731;22;20232;-94
2023/02/24 17:02:36;;;;;;;;;;;;;;;;;;6256468;23;19913;-96
2023/02/24 17:08:00;;;;;;;;;;;;;;;;;;6256269;23;19922;-95
2023/02/24 17:10:47;;;;;;;;;;;;;;;;;;6257985;23;19916;-94
2023/02/24 17:13:17;;;;;;;;;;;;;;;;;;6236347;23;19920;-91
2023/02/24 17:18:22;;;;;;;;;;;;;;;;;;6287167;22;19930;-94
2023/02/24 17:20:51;;;;;;;;;;;;;;;;;;6228511;22;19934;-93
2023/02/24 17:23:17;;;;;;;;;;;;;;;;;;6254515;22;19962;-95
2023/02/24 17:25:43;;;;;;;;;;;;;;;;;;6254038;22;19919;-95
2023/02/24 17:28:08;;;;;;;;;;;;;;;;;;6252823;22;19922;-94
2023/02/24 17:30:36;;;;;;;;;;;;;;;;;;6253111;22;20351;-94
2023/02/24 17:33:02;;;;;;;;;;;;;;;;;;6253864;22;19919;-93
2023/02/24 17:35:30;;;;;;;;;;;;;;;;;;6255796;22;19915;-95
2023/02/24 17:38:16;;;;;;;;;;;;;;;;;;6258441;22;19994;-93
2023/02/24 17:40:42;;;;;;;;;;;;;;;;;;6228188;22;19915;-94
2023/02/24 17:43:08;;;;;;;;;;;;;;;;;;6281677;22;20029;-96
2023/02/24 17:45:34;;;;;;;;;;;;;;;;;;6281160;22;19923;-94
2023/02/24 17:48:03;;;;;;;;;;;;;;;;;;6279448;22;19915;-95
2023/02/24 17:50:29;;;;;;;;;;;;;;;;;;6226839;22;20324;-92
2023/02/24 17:52:56;;;;;;;;;;;;;;;;;;6253303;22;19926;-95
2023/02/24 17:55:22;;;;;;;;;;;;;;;;;;6252643;22;19922;-92
2023/02/24 17:57:48;;;;;;;;;;;;;;;;;;6227344;22;19919;-95
2023/02/24 18:00:16;;;;;;;;;;;;;;;;;;6279547;22;19998;-96
2023/02/24 18:02:42;;;;;;;;;;;;;;;;;;6226404;22;19915;-94
2023/02/24 18:05:09;;;;;;;;;;;;;;;;;;6229472;22;19923;-94
2023/02/24 18:07:44;;;;;;;;;;;;;;;;;;6228825;22;20244;-95
2023/02/24 18:10:10;;;;;;;;;;;;;;;;;;6281337;22;19939;-93
2023/02/24 18:12:36;;;;;;;;;;;;;;;;;;6252384;22;19982;-93
2023/02/24 18:15:02;;;;;;;;;;;;;;;;;;6254867;22;19915;-95
2023/02/24 18:17:28;;;;;;;;;;;;;;;;;;6249004;22;19930;-96
2023/02/24 18:19:54;;;;;;;;;;;;;;;;;;6223746;23;19922;-94
2023/02/24 18:22:20;;;;;;;;;;;;;;;;;;6249413;23;19915;-94
2023/02/24 18:24:46;;;;;;;;;;;;;;;;;;6248963;23;19973;-95
2023/02/24 18:27:28;;;;;;;;;;;;;;;;;;;;;
2023/02/24 18:40:45;;;;;;;;;;;;;;;;;;6294233;22;19926;-94
2023/02/24 18:43:11;;;;;;;;;;;;;;;;;;6264904;22;19923;-95
2023/02/24 18:45:37;;;;;;;;;;;;;;;;;;6261513;22;19938;-96
2023/02/24 18:48:03;;;;;;;;;;;;;;;;;;6261577;22;19955;-95
2023/02/24 18:50:29;;;;;;;;;;;;;;;;;;6258907;22;19922;-94
2023/02/24 19:05:06;;;;;;;;;;;;;;;;;;6289933;22;20339;-95
2023/02/24 19:15:27;;;;;;;;;;;;;;;;;;6270651;22;20416;-94
2023/02/24 19:17:53;;;;;;;;;;;;;;;;;;6310287;22;19915;-91
2023/02/24 19:20:19;;;;;;;;;;;;;;;;;;6284323;22;20248;-92
2023/02/24 19:22:45;;;;;;;;;;;;;;;;;;6282846;22;19926;-93
2023/02/24 19:25:11;;;;;;;;;;;;;;;;;;6281803;22;19915;-91
2023/02/24 19:27:37;;;;;;;;;;;;;;;;;;6309208;22;19915;-92
2023/02/24 19:30:05;;;;;;;;;;;;;;;;;;6233101;22;19919;-96
2023/02/24 19:32:30;;;;;;;;;;;;;;;;;;6249733;23;20368;-94
2023/02/24 19:34:56;;;;;;;;;;;;;;;;;;6221167;23;19919;-93
2023/02/24 19:37:22;;;;;;;;;;;;;;;;;;6246393;23;19916;-94
2023/02/24 19:39:48;;;;;;;;;;;;;;;;;;6246472;23;20253;-93
2023/02/24 19:42:18;;;;;;;;;;;;;;;;;;6222274;23;19914;-92
2023/02/24 19:44:46;;;;;;;;;;;;;;;;;;6221731;23;20292;-94
2023/02/24 19:47:22;;;;;;;;;;;;;;;;;;;;;
2023/02/24 19:49:51;;;;;;;;;;;;;;;;;;6246681;23;19970;-93
2023/02/24 19:52:17;;;;;;;;;;;;;;;;;;6245988;23;20015;-92
2023/02/24 19:54:45;;;;;;;;;;;;;;;;;;6246052;23;19919;-94
2023/02/24 19:57:11;;;;;;;;;;;;;;;;;;6246675;23;19997;-94
2023/02/24 19:59:38;;;;;;;;;;;;;;;;;;6246675;23;19923;-95
2023/02/24 20:02:06;;;;;;;;;;;;;;;;;;6246830;23;19915;-95
2023/02/24 20:04:32;;;;;;;;;;;;;;;;;;6221170;23;19915;-95
2023/02/24 20:06:58;;;;;;;;;;;;;;;;;;6246393;23;19974;-91
2023/02/24 20:09:27;;;;;;;;;;;;;;;;;;6246341;23;19969;-92
2023/02/24 20:11:56;;;;;;;;;;;;;;;;;;6246454;23;19915;-94
2023/02/24 20:14:29;;;;;;;;;;;;;;;;;;6220713;23;19919;-93
2023/02/24 20:16:58;;;;;;;;;;;;;;;;;;6248204;23;19919;-95
2023/02/24 20:19:24;;;;;;;;;;;;;;;;;;6226127;23;20209;-94
2023/02/24 20:21:50;;;;;;;;;;;;;;;;;;6245721;23;19978;-94
2023/02/24 20:24:16;;;;;;;;;;;;;;;;;;6220761;23;19916;-95
2023/02/24 20:26:42;;;;;;;;;;;;;;;;;;6220465;23;20035;-94
2023/02/24 20:29:08;;;;;;;;;;;;;;;;;;6251832;22;19919;-93
2023/02/24 20:31:34;;;;;;;;;;;;;;;;;;6251555;22;19920;-94
2023/02/24 20:34:00;;;;;;;;;;;;;;;;;;6277778;22;19930;-94
2023/02/24 20:36:26;;;;;;;;;;;;;;;;;;6226559;22;19915;-93
2023/02/24 20:48:16;;;;;;;;;;;;;;;;;;6231192;22;19915;-94
2023/02/24 20:50:44;;;;;;;;;;;;;;;;;;6280687;22;19965;-96
2023/02/24 20:53:10;;;;;;;;;;;;;;;;;;6228091;22;19926;-96
2023/02/24 20:55:37;;;;;;;;;;;;;;;;;;6228773;22;20213;-96
2023/02/24 20:58:03;;;;;;;;;;;;;;;;;;6228739;22;19990;-95
2023/02/24 21:03:22;;;;;;;;;;;;;;;;;;6249524;22;19915;-94
2023/02/24 21:05:51;;;;;;;;;;;;;;;;;;6228282;22;19969;-95
2023/02/24 21:08:24;;;;;;;;;;;;;;;;;;6280659;22;19990;-95
2023/02/24 21:10:57;;;;;;;;;;;;;;;;;;6253443;22;19926;-95
2023/02/24 21:16:58;;;;;;;;;;;;;;;;;;6210576;22;19922;-96
2023/02/24 21:33:43;;;;;;;;;;;;;;;;;;;;;
2023/02/24 21:36:02;;;;;;;;;;;;;;;;;;6274616;22;19981;-93
2023/02/24 21:38:30;;;;;;;;;;;;;;;;;;6254076;22;19993;-93
2023/02/24 21:40:56;;;;;;;;;;;;;;;;;;6253413;22;19923;-93
2023/02/24 21:43:25;;;;;;;;;;;;;;;;;;6279511;22;19915;-94
2023/02/24 21:45:51;;;;;;;;;;;;;;;;;;6278468;22;19990;-94
2023/02/24 21:48:17;;;;;;;;;;;;;;;;;;6277473;22;19919;-92
2023/02/24 21:50:43;;;;;;;;;;;;;;;;;;6278370;22;19915;-95
2023/02/24 21:53:11;;;;;;;;;;;;;;;;;;6253223;22;20344;-96
2023/02/24 21:55:48;;;;;;;;;;;;;;;;;;;;;
2023/02/24 21:58:14;;;;;;;;;;;;;;;;;;6281202;22;19919;-93
2023/02/24 22:00:41;;;;;;;;;;;;;;;;;;6277440;22;20298;-93
2023/02/24 22:03:07;;;;;;;;;;;;;;;;;;6252193;22;19919;-93
2023/02/24 22:05:33;;;;;;;;;;;;;;;;;;6281197;22;20348;-94
2023/02/24 22:07:59;;;;;;;;;;;;;;;;;;6265394;22;19926;-94
2023/02/24 22:10:25;;;;;;;;;;;;;;;;;;6261609;22;19915;-93
2023/02/24 22:12:53;;;;;;;;;;;;;;;;;;6287209;22;19968;-94
2023/02/24 22:15:19;;;;;;;;;;;;;;;;;;6288791;22;19926;-91
2023/02/24 22:17:48;;;;;;;;;;;;;;;;;;6267426;22;19955;-95
2023/02/24 22:20:26;;;;;;;;;;;;;;;;;;6288751;22;19929;-94
2023/02/24 22:23:02;;;;;;;;;;;;;;;;;;6290887;22;19931;-94
2023/02/24 22:25:28;;;;;;;;;;;;;;;;;;6290466;22;19915;-92
2023/02/24 22:28:13;;;;;;;;;;;;;;;;;;;;;
2023/02/24 22:33:33;;;;;;;;;;;;;;;;;;6250457;22;19943;-95
2023/02/24 22:36:02;;;;;;;;;;;;;;;;;;6289624;22;19910;-94
2023/02/24 22:38:28;;;;;;;;;;;;;;;;;;6289490;22;19965;-93
2023/02/24 22:41:15;;;;;;;;;;;;;;;;;;6284858;22;19916;-94
2023/02/24 22:44:02;;;;;;;;;;;;;;;;;;6280591;22;19963;-96
2023/02/24 22:46:38;;;;;;;;;;;;;;;;;;6278630;22;19919;-95
2023/02/24 22:49:04;;;;;;;;;;;;;;;;;;6280790;22;19938;-96
2023/02/24 22:51:33;;;;;;;;;;;;;;;;;;6252084;22;19947;-96
2023/02/24 22:54:02;;;;;;;;;;;;;;;;;;6252442;22;19926;-96
2023/02/24 22:59:27;;;;;;;;;;;;;;;;;;;;;
2023/02/24 23:01:56;;;;;;;;;;;;;;;;;;6279010;22;19903;-96
2023/02/24 23:04:41;;;;;;;;;;;;;;;;;;;;;
2023/02/24 23:07:15;;;;;;;;;;;;;;;;;;6286663;22;19930;-96
2023/02/24 23:09:54;;;;;;;;;;;;;;;;;;6279185;22;19958;-94
2023/02/24 23:12:39;;;;;;;;;;;;;;;;;;;;;
2023/02/24 23:15:05;;;;;;;;;;;;;;;;;;6277125;22;19963;-94
2023/02/24 23:17:33;;;;;;;;;;;;;;;;;;6277640;22;19915;-96
2023/02/24 23:20:02;;;;;;;;;;;;;;;;;;6279048;22;19915;-95
2023/02/24 23:22:29;;;;;;;;;;;;;;;;;;6277949;22;19916;-95
2023/02/24 23:24:59;;;;;;;;;;;;;;;;;;6277054;22;19938;-93
2023/02/24 23:27:25;;;;;;;;;;;;;;;;;;6278080;22;19942;-96
2023/02/24 23:29:51;;;;;;;;;;;;;;;;;;6278334;22;20305;-95
2023/02/24 23:32:20;;;;;;;;;;;;;;;;;;6251505;22;19919;-95
2023/02/24 23:34:49;;;;;;;;;;;;;;;;;;6277393;22;19931;-95
2023/02/24 23:37:15;;;;;;;;;;;;;;;;;;6251529;22;19937;-96
2023/02/24 23:39:41;;;;;;;;;;;;;;;;;;6278532;22;19922;-95
2023/02/24 23:42:08;;;;;;;;;;;;;;;;;;6251119;22;19998;-95
2023/02/24 23:44:45;;;;;;;;;;;;;;;;;;6252250;22;19930;-95
2023/02/24 23:47:21;;;;;;;;;;;;;;;;;;;;;
2023/02/24 23:49:52;;;;;;;;;;;;;;;;;;6278624;22;19919;-96
2023/02/24 23:55:29;;;;;;;;;;;;;;;;;;6254924;22;19951;-93
2023/02/24 23:57:51;;;;;;;;;;;;;;;;;;6277465;22;19923;-95
